Time;durP1;ratioP1;P1;durP2;ratioP2;P2;SDS_P1;SDS_P2;PMS_P1;PMS_P2;Temp;Humidity;BMP_temperature;BMP_pressure;BME280_temperature;BME280_humidity;BME280_pressure;Samples;Min_cycle;Max_cycle;Signal;HPM_P1;HPM_P2
2023/07/17 00:00:20;;;;;;;2.33;2.10;;;;;;;27.98;62.19;100363.91;5047574;28;70870;-44
2023/07/17 00:02:51;;;;;;;7.72;3.20;;;;;;;28.26;69.32;100398.63;5055973;28;66255;-44
2023/07/17 00:05:23;;;;;;;5.80;4.10;;;;;;;28.27;74.50;100400.28;5058493;28;70185;-44
2023/07/17 00:07:54;;;;;;;6.47;4.50;;;;;;;28.27;76.62;100389.50;5057723;28;65695;-43
2023/07/17 00:10:25;;;;;;;5.65;4.60;;;;;;;28.25;77.55;100380.78;5058923;28;69771;-45
2023/07/17 00:12:56;;;;;;;5.70;4.53;;;;;;;28.40;76.94;100388.63;5054131;28;66343;-43
2023/07/17 00:15:27;;;;;;;14.82;5.10;;;;;;;28.36;76.26;100350.47;5056646;28;70403;-43
2023/07/17 00:17:58;;;;;;;7.75;5.00;;;;;;;28.52;76.99;100387.72;5055709;28;65915;-45
2023/07/17 00:20:29;;;;;;;9.25;5.03;;;;;;;28.48;78.29;100381.13;5061299;28;69347;-45
2023/07/17 00:23:01;;;;;;;8.63;5.87;;;;;;;28.40;79.42;100362.47;5058521;28;66365;-44
2023/07/17 00:25:34;;;;;;;6.32;5.72;;;;;;;28.48;79.37;100362.25;5052504;28;70043;-45
2023/07/17 00:28:06;;;;;;;9.27;4.73;;;;;;;28.59;79.61;100382.31;5059076;28;66778;-45
2023/07/17 00:30:38;;;;;;;5.57;4.88;;;;;;;28.65;79.47;100386.00;5055053;28;70175;-44
2023/07/17 00:33:09;;;;;;;12.63;5.50;;;;;;;28.69;80.42;100376.44;5056176;28;66376;-46
2023/07/17 00:35:42;;;;;;;4.90;4.30;;;;;;;28.66;80.43;100371.47;5057625;28;70472;-43
2023/07/17 00:38:13;;;;;;;9.43;4.13;;;;;;;28.71;79.48;100395.94;5055354;28;66762;-44
2023/07/17 00:40:44;;;;;;;8.68;4.53;;;;;;;28.65;79.40;100365.25;5047871;28;70469;-45
2023/07/17 00:43:15;;;;;;;7.73;4.60;;;;;;;28.77;80.79;100378.88;5053201;28;67278;-44
2023/07/17 00:45:46;;;;;;;5.15;3.42;;;;;;;28.81;80.30;100366.59;5057571;28;70212;-43
2023/07/17 00:48:17;;;;;;;11.48;3.90;;;;;;;28.83;80.29;100375.28;5052492;28;66343;-44
2023/07/17 00:50:51;;;;;;;7.25;3.58;;;;;;;28.81;79.77;100368.47;5058858;28;70381;-44
2023/07/17 00:53:22;;;;;;;6.88;3.45;;;;;;;28.61;80.23;100330.81;5048322;28;66643;-44
2023/07/17 00:55:53;;;;;;;5.30;3.40;;;;;;;29.06;75.80;100371.19;5051780;28;71558;-44
2023/07/17 00:58:25;;;;;;;;;;;;;;;28.78;77.50;100374.28;5056791;28;65539;-45
2023/07/17 01:00:57;;;;;;;7.47;3.80;;;;;;;29.14;73.74;100376.31;5058933;28;70317;-44
2023/07/17 01:03:27;;;;;;;;;;;;;;;28.82;75.37;100370.13;5026911;28;65636;-44
2023/07/17 01:05:59;;;;;;;5.15;2.97;;;;;;;29.18;72.92;100374.84;5051857;28;71364;-44
2023/07/17 01:08:32;;;;;;;6.35;3.10;;;;;;;29.18;72.24;100369.44;5048840;28;66826;-45
2023/07/17 01:11:03;;;;;;;3.10;2.72;;;;;;;29.17;72.40;100357.00;5039323;28;69838;-45
2023/07/17 01:13:47;;;;;;;4.22;2.60;;;;;;;28.44;71.41;100230.69;5037785;28;66447;-46
2023/07/17 01:16:19;;;;;;;3.58;2.38;;;;;;;29.36;71.68;100376.75;5040056;28;70600;-45
2023/07/17 01:18:50;;;;;;;2.87;2.63;;;;;;;29.24;71.55;100362.34;5050348;28;65890;-44
2023/07/17 01:21:26;;;;;;;;;;;;;;;29.06;72.55;100392.81;5044948;28;69473;-45
2023/07/17 01:23:57;;;;;;;3.25;2.55;;;;;;;29.42;71.44;100396.66;5050140;28;66906;-45
2023/07/17 01:26:29;;;;;;;4.00;2.80;;;;;;;29.48;71.06;100401.19;5048979;28;71648;-45
2023/07/17 01:29:00;;;;;;;2.70;2.45;;;;;;;29.48;71.50;100403.91;5051082;28;66772;-44
2023/07/17 01:31:31;;;;;;;2.80;2.10;;;;;;;29.48;70.93;100409.31;5046317;28;70151;-44
2023/07/17 01:34:04;;;;;;;3.78;2.75;;;;;;;29.56;71.53;100415.25;5057122;28;67292;-45
2023/07/17 01:36:35;;;;;;;;;;;;;;;29.21;72.12;100417.63;5056578;28;70451;-47
2023/07/17 01:39:06;;;;;;;3.47;2.60;;;;;;;29.56;71.16;100415.25;5044556;28;66649;-45
2023/07/17 01:41:37;;;;;;;2.30;1.95;;;;;;;29.46;71.09;100387.91;5045820;28;70811;-46
2023/07/17 01:44:09;;;;;;;2.40;1.98;;;;;;;29.59;70.81;100398.59;5055017;28;66493;-45
2023/07/17 01:46:40;;;;;;;2.95;2.10;;;;;;;29.66;70.94;100406.66;5056914;28;70080;-47
2023/07/17 01:49:12;;;;;;;2.33;1.70;;;;;;;29.66;71.32;100408.53;5052443;28;66814;-46
2023/07/17 01:51:43;;;;;;;2.37;2.10;;;;;;;29.66;70.72;100398.53;5054431;28;70715;-45
2023/07/17 01:54:15;;;;;;;2.58;2.38;;;;;;;29.71;70.68;100406.81;5046357;28;66449;-45
2023/07/17 01:56:46;;;;;;;2.50;2.30;;;;;;;29.72;71.08;100397.63;5045322;28;70131;-45
2023/07/17 01:59:18;;;;;;;2.72;1.83;;;;;;;29.72;71.06;100394.94;5058146;28;66342;-46
2023/07/17 02:01:49;;;;;;;1.83;1.60;;;;;;;29.77;70.62;100411.31;5041587;28;70090;-45
2023/07/17 02:04:21;;;;;;;2.63;2.08;;;;;;;29.67;71.19;100384.00;5042896;28;66432;-45
2023/07/17 02:06:52;;;;;;;2.03;1.80;;;;;;;29.79;71.14;100409.22;5040082;28;69582;-45
2023/07/17 02:09:26;;;;;;;2.30;2.10;;;;;;;29.86;70.87;100413.72;5054228;28;65724;-45
2023/07/17 02:11:58;;;;;;;1.97;1.40;;;;;;;29.81;70.90;100400.88;5040746;28;70138;-48
2023/07/17 02:14:29;;;;;;;1.95;1.45;;;;;;;29.88;70.56;100417.84;5041676;28;66467;-45
2023/07/17 02:17:01;;;;;;;2.58;1.92;;;;;;;29.91;70.91;100427.41;5039766;28;70392;-44
2023/07/17 02:19:32;;;;;;;2.20;1.58;;;;;;;29.89;70.50;100410.56;5041932;28;65861;-46
2023/07/17 02:22:04;;;;;;;2.00;1.73;;;;;;;29.81;70.76;100401.72;5040816;28;70241;-46
2023/07/17 02:24:35;;;;;;;2.00;1.33;;;;;;;29.94;70.36;100421.53;5059474;28;66146;-46
2023/07/17 02:27:07;;;;;;;1.27;1.10;;;;;;;29.99;70.82;100435.22;5060188;28;70471;-45
2023/07/17 02:29:38;;;;;;;1.73;1.25;;;;;;;29.96;70.76;100441.06;5059740;28;65791;-45
2023/07/17 02:32:09;;;;;;;1.60;1.45;;;;;;;30.01;70.22;100438.53;5043727;28;70233;-46
2023/07/17 02:34:41;;;;;;;1.80;1.50;;;;;;;30.03;70.47;100442.66;5040176;28;65989;-45
2023/07/17 02:37:12;;;;;;;1.70;1.60;;;;;;;30.02;70.37;100435.59;5052966;28;69627;-45
2023/07/17 02:39:43;;;;;;;1.65;1.25;;;;;;;30.01;70.54;100428.53;5049647;28;66335;-46
2023/07/17 02:42:15;;;;;;;1.70;1.17;;;;;;;29.60;70.43;100358.88;5057151;28;70795;-45
2023/07/17 02:44:47;;;;;;;1.42;1.15;;;;;;;30.12;69.96;100445.91;5051885;28;66393;-45
2023/07/17 02:47:18;;;;;;;1.67;1.15;;;;;;;30.15;70.36;100440.03;5058606;28;70656;-44
2023/07/17 02:49:51;;;;;;;1.30;1.05;;;;;;;30.19;70.09;100441.22;5053372;28;65905;-44
2023/07/17 02:52:22;;;;;;;2.43;0.70;;;;;;;30.17;70.40;100424.41;5048695;28;71113;-45
2023/07/17 02:54:54;;;;;;;1.23;1.10;;;;;;;30.17;70.18;100410.88;5058649;28;66057;-45
2023/07/17 02:57:25;;;;;;;1.47;1.00;;;;;;;30.24;69.88;100433.28;5049855;28;70069;-45
2023/07/17 02:59:57;;;;;;;1.60;1.02;;;;;;;30.28;69.96;100439.06;5055828;28;66228;-44
2023/07/17 03:02:29;;;;;;;1.60;1.30;;;;;;;30.31;69.99;100427.78;5048294;28;69815;-45
2023/07/17 03:05:00;;;;;;;1.75;1.10;;;;;;;30.16;69.97;100403.81;5046132;28;66010;-45
2023/07/17 03:07:42;;;;;;;3.10;1.23;;;;;;;29.78;69.67;100342.69;5059085;28;69091;-46
2023/07/17 03:10:14;;;;;;;1.30;1.10;;;;;;;30.40;69.46;100414.78;5049208;28;66214;-45
2023/07/17 03:12:44;;;;;;;;;;;;;;;30.04;71.30;100417.25;5046344;28;70095;-45
2023/07/17 03:15:15;;;;;;;1.42;0.90;;;;;;;30.41;69.50;100419.13;5061673;28;67186;-45
2023/07/17 03:17:47;;;;;;;1.50;1.10;;;;;;;30.43;69.41;100415.16;5041455;28;69320;-44
2023/07/17 03:20:19;;;;;;;1.27;0.90;;;;;;;30.46;69.33;100414.69;5041437;28;65613;-46
2023/07/17 03:22:50;;;;;;;0.95;0.80;;;;;;;30.49;69.35;100405.28;5058547;28;71511;-45
2023/07/17 03:25:22;;;;;;;4.80;0.93;;;;;;;30.42;69.23;100386.44;5059894;28;65043;-45
2023/07/17 03:27:53;;;;;;;1.52;0.93;;;;;;;30.45;69.83;100379.72;5047065;28;70150;-45
2023/07/17 03:30:25;;;;;;;1.40;0.90;;;;;;;30.59;69.11;100410.13;5058444;28;66328;-44
2023/07/17 03:32:58;;;;;;;1.10;0.80;;;;;;;30.63;69.29;100406.75;5044265;28;69844;-45
2023/07/17 03:35:30;;;;;;;3.88;1.00;;;;;;;30.48;69.19;100384.72;5042233;28;66378;-44
2023/07/17 03:38:01;;;;;;;1.42;1.00;;;;;;;30.48;69.24;100395.53;5056226;28;69162;-44
2023/07/17 03:40:33;;;;;;;1.63;0.90;;;;;;;30.51;69.30;100378.84;5047673;28;65988;-45
2023/07/17 03:43:05;;;;;;;1.35;0.80;;;;;;;30.66;69.14;100408.19;5041848;28;69407;-45
2023/07/17 03:45:37;;;;;;;3.13;1.20;;;;;;;30.72;68.93;100394.53;5039246;28;65510;-46
2023/07/17 03:48:08;;;;;;;2.33;1.30;;;;;;;30.69;68.85;100391.47;5049819;28;70348;-45
2023/07/17 03:50:42;;;;;;;1.08;0.90;;;;;;;30.55;68.64;100373.78;5052935;28;65932;-46
2023/07/17 03:53:13;;;;;;;1.75;1.20;;;;;;;30.79;68.70;100397.16;5046974;28;70745;-45
2023/07/17 03:55:45;;;;;;;1.58;1.00;;;;;;;30.81;68.87;100405.88;5053442;28;66430;-46
2023/07/17 03:58:17;;;;;;;1.58;1.08;;;;;;;30.83;68.78;100395.66;5048743;28;69453;-44
2023/07/17 04:00:50;;;;;;;1.20;0.85;;;;;;;30.87;68.63;100398.72;5059368;28;66547;-44
2023/07/17 04:03:21;;;;;;;1.35;0.88;;;;;;;30.73;68.63;100376.44;5058530;28;70144;-46
2023/07/17 04:05:52;;;;;;;1.20;0.75;;;;;;;30.91;68.86;100399.94;5038364;28;66662;-45
2023/07/17 04:08:24;;;;;;;1.65;1.17;;;;;;;30.90;68.28;100395.56;5055331;28;69491;-45
2023/07/17 04:10:55;;;;;;;1.23;1.13;;;;;;;30.94;68.15;100392.16;5055351;28;66532;-45
2023/07/17 04:13:27;;;;;;;1.30;0.80;;;;;;;30.95;68.24;100395.69;5051556;28;69235;-45
2023/07/17 04:16:02;;;;;;;;;;;;;;;30.67;69.21;100389.00;5057255;28;66276;-45
2023/07/17 04:18:33;;;;;;;1.00;0.63;;;;;;;30.54;68.51;100308.00;5059865;28;69765;-45
2023/07/17 04:21:05;;;;;;;1.15;1.00;;;;;;;30.96;67.95;100370.25;5058251;28;66937;-45
2023/07/17 04:23:36;;;;;;;1.33;0.88;;;;;;;31.05;67.93;100385.09;5058771;28;70349;-45
2023/07/17 04:26:12;;;;;;;1.33;1.00;;;;;;;30.90;68.00;100354.94;5055895;28;66400;-44
2023/07/17 04:28:44;;;;;;;2.60;0.90;;;;;;;31.13;67.69;100382.06;5051728;28;70191;-45
2023/07/17 04:31:17;;;;;;;2.72;1.05;;;;;;;31.17;67.56;100383.25;5054275;28;65701;-44
2023/07/17 04:33:48;;;;;;;1.48;0.95;;;;;;;31.18;67.69;100373.25;5053439;28;70601;-44
2023/07/17 04:36:20;;;;;;;2.28;1.20;;;;;;;30.70;67.41;100291.09;5051026;28;66224;-46
2023/07/17 04:38:51;;;;;;;1.05;0.82;;;;;;;31.22;67.11;100357.31;5071425;28;70271;-45
2023/07/17 04:41:22;;;;;;;1.25;0.93;;;;;;;31.12;67.37;100347.91;5068990;28;66744;-45
2023/07/17 04:43:54;;;;;;;1.92;1.05;;;;;;;31.27;67.23;100349.31;5055624;28;70436;-44
2023/07/17 04:46:26;;;;;;;1.58;1.00;;;;;;;31.23;67.07;100340.00;5056113;28;66357;-44
2023/07/17 04:48:57;;;;;;;1.95;0.95;;;;;;;31.29;67.06;100358.88;5054079;28;69789;-45
2023/07/17 04:51:30;;;;;;;1.50;0.90;;;;;;;31.30;67.18;100349.66;5058707;28;65915;-45
2023/07/17 04:54:03;;;;;;;2.38;0.93;;;;;;;31.31;66.95;100356.72;5052340;28;70753;-44
2023/07/17 04:56:34;;;;;;;5.05;1.20;;;;;;;31.12;66.74;100318.09;5055507;28;66434;-45
2023/07/17 04:59:11;;;;;;;1.88;1.10;;;;;;;31.16;66.71;100327.41;5048112;28;70287;-44
2023/07/17 05:01:42;;;;;;;3.35;1.00;;;;;;;31.35;66.50;100357.09;5055456;28;66334;-43
2023/07/17 05:04:13;;;;;;;2.88;1.00;;;;;;;31.21;66.80;100317.75;5057828;28;69402;-44
2023/07/17 05:06:45;;;;;;;1.58;1.10;;;;;;;31.31;66.52;100339.66;5054289;28;64740;-43
2023/07/17 05:09:16;;;;;;;1.38;0.90;;;;;;;31.23;66.63;100323.75;5050030;28;69561;-43
2023/07/17 05:11:49;;;;;;;1.83;1.13;;;;;;;31.39;66.30;100325.78;5044159;28;66003;-44
2023/07/17 05:14:22;;;;;;;1.40;0.80;;;;;;;31.44;66.44;100334.03;5042622;28;69606;-43
2023/07/17 05:16:57;;;;;;;1.58;0.80;;;;;;;31.46;66.53;100331.91;5041113;28;66659;-44
2023/07/17 05:19:28;;;;;;;0.95;0.70;;;;;;;31.43;66.37;100312.59;5056894;28;70303;-44
2023/07/17 05:22:00;;;;;;;2.43;0.90;;;;;;;31.44;66.49;100317.75;5058925;28;65710;-43
2023/07/17 05:24:32;;;;;;;2.15;0.93;;;;;;;31.52;66.32;100324.72;5058560;28;69967;-44
2023/07/17 05:27:05;;;;;;;1.10;0.75;;;;;;;31.51;66.23;100323.88;5043648;28;66253;-43
2023/07/17 05:29:36;;;;;;;1.60;0.90;;;;;;;31.56;66.08;100332.09;5046543;28;69356;-43
2023/07/17 05:32:07;;;;;;;1.53;0.80;;;;;;;31.15;66.09;100249.91;5053138;28;65751;-44
2023/07/17 05:34:39;;;;;;;1.60;0.85;;;;;;;31.63;66.05;100331.19;5057172;28;69065;-44
2023/07/17 05:37:11;;;;;;;1.85;0.90;;;;;;;31.63;66.09;100332.00;5049224;28;66161;-44
2023/07/17 05:39:41;;;;;;;;;;;;;;;31.34;66.58;100317.50;5048785;28;69806;-44
2023/07/17 05:42:13;;;;;;;1.33;0.60;;;;;;;31.62;66.33;100305.94;5048915;28;66521;-45
2023/07/17 05:44:46;;;;;;;2.60;0.70;;;;;;;31.68;66.01;100307.72;5049869;28;69582;-45
2023/07/17 05:47:17;;;;;;;1.52;0.88;;;;;;;31.69;66.17;100305.81;5055327;28;65913;-45
2023/07/17 05:49:49;;;;;;;2.08;1.00;;;;;;;31.70;65.74;100302.03;5058047;28;69428;-44
2023/07/17 05:52:20;;;;;;;1.23;0.80;;;;;;;31.71;65.54;100296.38;5054395;28;66040;-44
2023/07/17 05:54:51;;;;;;;1.63;0.65;;;;;;;31.72;65.63;100283.63;5053823;28;69306;-45
2023/07/17 05:57:23;;;;;;;;;;;;;;;31.45;66.36;100273.31;5055096;28;66162;-44
2023/07/17 05:59:55;;;;;;;;;;;;;;;31.42;66.25;100281.09;5051219;28;70019;-44
2023/07/17 06:02:27;;;;;;;4.88;0.90;;;;;;;31.72;65.73;100273.59;5073399;28;67172;-45
2023/07/17 06:04:58;;;;;;;3.33;1.02;;;;;;;31.77;65.65;100278.31;5050938;28;70659;-46
2023/07/17 06:07:31;;;;;;;1.23;0.73;;;;;;;31.70;65.51;100261.34;5057248;28;65224;-45
2023/07/17 06:10:02;;;;;;;1.50;0.63;;;;;;;31.82;65.34;100267.59;5057121;28;70692;-44
2023/07/17 06:12:34;;;;;;;1.60;0.85;;;;;;;31.85;65.50;100274.41;5052964;28;65963;-43
2023/07/17 06:15:06;;;;;;;1.80;0.90;;;;;;;31.76;65.41;100254.97;5062641;28;70318;-44
2023/07/17 06:17:38;;;;;;;1.02;0.80;;;;;;;31.88;65.35;100261.19;5054884;28;67063;-44
2023/07/17 06:20:09;;;;;;;1.40;0.88;;;;;;;31.88;65.36;100255.75;5062435;28;70108;-47
2023/07/17 06:22:41;;;;;;;4.40;0.75;;;;;;;30.87;65.17;100079.19;5056979;28;65941;-45
2023/07/17 06:25:12;;;;;;;3.55;0.93;;;;;;;31.75;65.35;100218.06;5052133;28;69451;-44
2023/07/17 06:27:44;;;;;;;2.03;0.90;;;;;;;31.90;65.13;100218.38;5056988;28;66590;-44
2023/07/17 06:30:15;;;;;;;1.48;0.80;;;;;;;31.98;65.02;100225.31;5050713;28;70744;-43
2023/07/17 06:32:46;;;;;;;1.83;0.93;;;;;;;32.01;64.87;100227.53;5061183;28;66298;-44
2023/07/17 06:35:18;;;;;;;1.75;0.88;;;;;;;31.99;64.80;100216.94;5062113;28;70212;-44
2023/07/17 06:37:49;;;;;;;;;;;;;;;31.76;65.41;100204.28;5060985;28;66287;-43
2023/07/17 06:40:20;;;;;;;2.15;0.90;;;;;;;32.05;65.04;100215.94;5060156;28;70753;-43
2023/07/17 06:42:52;;;;;;;2.83;0.90;;;;;;;32.10;64.79;100217.13;5045708;28;65087;-43
2023/07/17 06:45:24;;;;;;;1.50;0.70;;;;;;;32.15;64.81;100212.63;5051258;28;70603;-43
2023/07/17 06:47:59;;;;;;;1.55;1.05;;;;;;;32.17;64.80;100201.50;5059653;28;65967;-44
2023/07/17 06:50:30;;;;;;;1.70;1.00;;;;;;;32.17;64.76;100196.06;5051774;28;70739;-42
2023/07/17 06:53:01;;;;;;;2.17;1.17;;;;;;;32.08;65.02;100175.84;5051246;28;66096;-43
2023/07/17 06:55:33;;;;;;;4.05;0.90;;;;;;;32.19;64.88;100193.94;5052937;28;69987;-44
2023/07/17 06:58:04;;;;;;;1.60;0.93;;;;;;;32.20;64.70;100187.44;5059762;28;66058;-43
2023/07/17 07:00:35;;;;;;;1.42;0.88;;;;;;;32.10;64.75;100157.44;5058842;28;69987;-43
2023/07/17 07:03:07;;;;;;;1.42;1.08;;;;;;;32.22;64.71;100166.31;5056896;28;66072;-44
2023/07/17 07:05:38;;;;;;;1.50;1.00;;;;;;;32.30;64.63;100176.75;5055696;28;69452;-45
2023/07/17 07:08:10;;;;;;;1.27;0.93;;;;;;;32.31;64.57;100162.09;5059274;28;66570;-44
2023/07/17 07:10:41;;;;;;;3.83;1.08;;;;;;;32.35;64.39;100165.16;5059850;28;70227;-43
2023/07/17 07:13:13;;;;;;;1.98;1.15;;;;;;;31.85;64.41;100090.81;5058358;28;66048;-42
2023/07/17 07:15:44;;;;;;;1.95;1.25;;;;;;;32.40;64.68;100174.22;5061274;28;69271;-44
2023/07/17 07:18:16;;;;;;;1.63;0.93;;;;;;;32.24;64.63;100134.34;5056409;28;65413;-43
2023/07/17 07:20:51;;;;;;;2.72;1.42;;;;;;;31.73;64.25;100046.66;5061732;28;69831;-43
2023/07/17 07:23:22;;;;;;;2.13;1.20;;;;;;;32.35;64.35;100144.28;5049816;28;66409;-43
2023/07/17 07:25:53;;;;;;;1.67;1.10;;;;;;;32.35;64.33;100138.03;5044890;28;69910;-44
2023/07/17 07:28:25;;;;;;;2.47;1.23;;;;;;;32.45;64.29;100152.56;5053505;28;66117;-45
2023/07/17 07:30:57;;;;;;;1.90;1.10;;;;;;;32.45;64.63;100144.41;5047643;28;69771;-45
2023/07/17 07:33:32;;;;;;;2.30;1.13;;;;;;;32.46;64.64;100148.81;5053203;28;66440;-43
2023/07/17 07:36:04;;;;;;;2.85;1.20;;;;;;;32.50;64.26;100135.56;5044760;28;70128;-43
2023/07/17 07:38:35;;;;;;;1.92;1.48;;;;;;;32.49;64.21;100123.06;5052725;28;66327;-43
2023/07/17 07:41:07;;;;;;;3.08;1.45;;;;;;;32.53;64.26;100126.09;5060855;28;69675;-44
2023/07/17 07:43:38;;;;;;;2.37;1.20;;;;;;;32.53;64.52;100120.66;5050064;28;66290;-44
2023/07/17 07:46:10;;;;;;;2.45;1.63;;;;;;;32.54;64.17;100119.59;5048878;28;70071;-43
2023/07/17 07:48:41;;;;;;;;;;;;;;;32.26;65.13;100118.59;5056145;28;66115;-44
2023/07/17 07:51:11;;;;;;;2.78;1.65;;;;;;;32.24;63.94;100066.50;5058577;28;69815;-44
2023/07/17 07:53:46;;;;;;;2.63;1.50;;;;;;;32.60;64.19;100111.28;5059325;28;65542;-43
2023/07/17 07:56:17;;;;;;;2.65;1.70;;;;;;;32.60;64.04;100108.56;5055582;28;70126;-44
2023/07/17 07:58:50;;;;;;;2.13;1.60;;;;;;;32.59;64.27;100095.22;5048152;28;66287;-44
2023/07/17 08:01:20;;;;;;;;;;;;;;;32.36;64.62;100109.81;5059385;28;69626;-44
2023/07/17 08:03:52;;;;;;;2.95;1.65;;;;;;;32.63;64.10;100107.25;5059377;28;66993;-47
2023/07/17 08:06:24;;;;;;;2.85;1.50;;;;;;;32.11;63.89;100007.13;5049945;28;69043;-43
2023/07/17 08:08:56;;;;;;;3.35;1.50;;;;;;;32.63;63.94;100082.81;5046318;28;66152;-44
2023/07/17 08:11:27;;;;;;;;;;;;;;;32.36;65.08;100097.06;5051669;28;69798;-42
2023/07/17 08:13:58;;;;;;;2.38;1.98;;;;;;;32.66;64.13;100090.44;5054863;28;66323;-44
2023/07/17 08:16:29;;;;;;;2.15;1.70;;;;;;;32.68;64.25;100088.28;5061426;28;69990;-44
2023/07/17 08:19:01;;;;;;;3.50;1.90;;;;;;;32.68;64.10;100099.13;5060184;28;66128;-44
2023/07/17 08:21:32;;;;;;;2.10;1.75;;;;;;;32.69;64.17;100115.19;5059198;28;70681;-43
2023/07/17 08:24:04;;;;;;;3.95;2.35;;;;;;;32.66;64.52;100126.56;5059352;28;66051;-44
2023/07/17 08:26:36;;;;;;;4.75;2.30;;;;;;;32.67;64.86;100119.22;5061093;28;70167;-44
2023/07/17 08:29:07;;;;;;;;;;;;;;;32.40;65.87;100109.06;5056545;28;67028;-45
2023/07/17 08:31:38;;;;;;;3.25;2.25;;;;;;;32.63;65.69;100134.41;5053269;28;70366;-45
2023/07/17 08:34:10;;;;;;;5.10;2.35;;;;;;;32.59;65.96;100144.09;5057409;28;65604;-43
2023/07/17 08:36:41;;;;;;;5.03;1.67;;;;;;;32.51;66.35;100158.09;5058740;28;69850;-43
2023/07/17 08:39:12;;;;;;;3.80;1.80;;;;;;;32.63;66.64;100184.09;5056127;28;66440;-44
2023/07/17 08:41:49;;;;;;;2.95;2.00;;;;;;;32.01;66.73;100087.31;5056224;28;69931;-44
2023/07/17 08:44:22;;;;;;;3.13;1.83;;;;;;;32.67;66.80;100217.81;5048963;28;66705;-43
2023/07/17 08:46:53;;;;;;;4.80;1.85;;;;;;;32.65;66.57;100198.25;5053766;28;70031;-44
2023/07/17 08:49:26;;;;;;;3.45;1.50;;;;;;;32.65;66.57;100202.84;5051147;28;65880;-42
2023/07/17 08:51:59;;;;;;;3.45;1.40;;;;;;;31.96;66.63;100092.66;5069278;28;70101;-44
2023/07/17 08:54:34;;;;;;;1.90;1.33;;;;;;;32.62;66.66;100192.47;5049768;28;66510;-43
2023/07/17 08:57:05;;;;;;;2.17;1.40;;;;;;;32.60;66.18;100202.78;5042676;28;69674;-45
2023/07/17 08:59:37;;;;;;;3.65;1.38;;;;;;;32.58;66.53;100183.19;5048637;28;65743;-45
2023/07/17 09:02:08;;;;;;;1.65;1.17;;;;;;;32.55;66.71;100180.97;5051228;28;70244;-45
2023/07/17 09:04:40;;;;;;;3.10;1.17;;;;;;;31.96;66.71;100097.25;5050769;28;66478;-45
2023/07/17 09:07:11;;;;;;;1.90;1.20;;;;;;;32.45;66.80;100174.25;5060928;28;69631;-44
2023/07/17 09:09:43;;;;;;;2.90;1.33;;;;;;;32.40;66.82;100166.06;5057181;28;66385;-45
2023/07/17 09:12:16;;;;;;;2.55;1.55;;;;;;;32.40;66.67;100163.34;5054303;28;69551;-44
2023/07/17 09:14:49;;;;;;;3.40;2.03;;;;;;;32.38;66.96;100154.63;5051641;28;65326;-46
2023/07/17 09:17:20;;;;;;;3.58;1.40;;;;;;;32.24;66.81;100131.63;5057624;28;69458;-44
2023/07/17 09:19:51;;;;;;;;;;;;;;;32.04;68.73;100148.41;5054506;28;65864;-44
2023/07/17 09:22:22;;;;;;;2.10;1.40;;;;;;;31.94;67.04;100104.81;5054829;28;70219;-43
2023/07/17 09:24:54;;;;;;;5.63;1.83;;;;;;;32.24;67.09;100164.19;5051150;28;66048;-44
2023/07/17 09:27:25;;;;;;;2.88;2.00;;;;;;;32.23;66.91;100162.50;5060813;28;69215;-43
2023/07/17 09:29:57;;;;;;;3.38;1.85;;;;;;;32.21;67.07;100167.38;5053266;28;66310;-44
2023/07/17 09:32:28;;;;;;;7.00;1.40;;;;;;;32.18;66.91;100170.56;5059003;28;69275;-44
2023/07/17 09:35:05;;;;;;;2.25;1.83;;;;;;;32.13;67.27;100167.78;5047281;28;67505;-44
2023/07/17 09:37:36;;;;;;;2.17;1.73;;;;;;;31.58;67.16;100086.00;5056826;28;70840;-45
2023/07/17 09:40:16;;;;;;;2.78;1.77;;;;;;;31.40;67.10;100067.25;5053967;28;65484;-44
2023/07/17 09:42:56;;;;;;;2.65;1.98;;;;;;;31.34;67.85;100079.00;5052541;28;69207;-44
2023/07/17 09:45:28;;;;;;;2.25;1.83;;;;;;;32.02;67.22;100183.88;5050761;28;66155;-44
2023/07/17 09:48:02;;;;;;;3.92;2.03;;;;;;;31.96;67.41;100184.06;5049215;28;69193;-43
2023/07/17 09:50:34;;;;;;;3.17;2.42;;;;;;;31.96;67.35;100187.59;5053337;28;66487;-43
2023/07/17 09:53:08;;;;;;;2.58;1.95;;;;;;;31.10;67.39;100062.88;5052362;28;70408;-43
2023/07/17 09:55:40;;;;;;;2.80;2.22;;;;;;;31.23;67.45;100098.84;5053076;28;66256;-44
2023/07/17 09:58:13;;;;;;;4.38;2.03;;;;;;;31.17;67.28;100100.66;5051930;28;70662;-44
2023/07/17 10:00:50;;;;;;;4.53;1.50;;;;;;;31.22;67.52;100129.72;5053957;28;65671;-45
2023/07/17 10:03:25;;;;;;;2.55;1.95;;;;;;;31.08;67.54;100108.34;5055090;28;69392;-45
2023/07/17 10:05:58;;;;;;;3.67;2.22;;;;;;;31.77;67.26;100254.72;5056218;28;66547;-44
2023/07/17 10:08:31;;;;;;;5.75;2.75;;;;;;;31.62;67.80;100221.88;5048879;28;69304;-44
2023/07/17 10:11:04;;;;;;;2.63;2.00;;;;;;;31.72;67.56;100253.81;5054986;28;65554;-43
2023/07/17 10:13:35;;;;;;;2.63;1.52;;;;;;;31.65;67.41;100250.41;5050180;28;70061;-43
2023/07/17 10:16:08;;;;;;;3.30;2.30;;;;;;;31.64;67.53;100262.31;5054130;28;65534;-45
2023/07/17 10:18:48;;;;;;;;;;;;;;;31.26;68.80;100256.38;5055553;28;70534;-43
2023/07/17 10:21:20;;;;;;;4.53;2.17;;;;;;;31.51;67.85;100242.56;5052357;28;65938;-45
2023/07/17 10:23:51;;;;;;;2.35;1.25;;;;;;;31.53;67.62;100251.25;5053804;28;70443;-43
2023/07/17 10:26:23;;;;;;;5.82;1.67;;;;;;;31.16;70.08;100238.00;5056257;28;66158;-44
2023/07/17 10:28:55;;;;;;;3.35;2.35;;;;;;;30.92;71.97;100242.63;5053538;28;69782;-44
2023/07/17 10:31:26;;;;;;;3.13;2.20;;;;;;;30.66;72.82;100216.78;5057310;28;66087;-45
2023/07/17 10:34:02;;;;;;;;;;;;;;;30.56;73.59;100240.91;5053911;28;69766;-44
2023/07/17 10:36:44;;;;;;;4.28;2.50;;;;;;;30.23;74.08;100180.03;5058019;28;66129;-44
2023/07/17 10:39:25;;;;;;;3.17;2.42;;;;;;;30.62;74.49;100245.41;5056959;28;69957;-45
2023/07/17 10:42:06;;;;;;;3.20;2.25;;;;;;;30.47;74.73;100221.47;5060852;28;66563;-46
2023/07/17 10:44:37;;;;;;;3.40;2.85;;;;;;;30.60;75.39;100230.44;5061829;28;69901;-46
2023/07/17 10:47:08;;;;;;;5.07;3.40;;;;;;;30.54;75.49;100224.09;5060667;28;66252;-45
2023/07/17 10:49:40;;;;;;;6.32;4.47;;;;;;;30.56;76.24;100224.66;5060737;28;69902;-47
2023/07/17 10:52:11;;;;;;;5.95;3.92;;;;;;;30.40;76.51;100225.38;5060837;28;66626;-47
2023/07/17 10:54:42;;;;;;;7.10;3.70;;;;;;;30.51;76.25;100243.50;5056331;28;70394;-47
2023/07/17 10:57:14;;;;;;;4.32;3.95;;;;;;;30.50;77.01;100258.06;5054983;28;65128;-47
2023/07/17 10:59:45;;;;;;;4.32;3.80;;;;;;;30.49;77.11;100259.16;5058901;28;69841;-47
2023/07/17 11:02:17;;;;;;;5.70;4.17;;;;;;;30.50;77.58;100274.31;5059479;28;65270;-46
2023/07/17 11:04:54;;;;;;;10.20;4.85;;;;;;;30.45;77.04;100271.47;5057919;28;70475;-45
2023/07/17 11:07:26;;;;;;;10.43;4.97;;;;;;;30.43;77.70;100279.03;5051309;28;65554;-47
2023/07/17 11:09:57;;;;;;;9.98;5.63;;;;;;;30.48;78.01;100298.09;5060550;28;70164;-48
2023/07/17 11:12:28;;;;;;;8.45;5.68;;;;;;;30.48;78.12;100303.50;5060631;28;65508;-45
2023/07/17 11:15:01;;;;;;;12.45;6.55;;;;;;;29.80;78.46;100205.38;5053776;28;70206;-46
2023/07/17 11:17:32;;;;;;;7.00;5.80;;;;;;;30.48;78.91;100325.16;5059214;28;66205;-46
2023/07/17 11:20:04;;;;;;;8.93;5.97;;;;;;;30.45;78.72;100331.00;5058251;28;69234;-46
2023/07/17 11:22:37;;;;;;;6.82;6.00;;;;;;;30.41;78.66;100329.84;5058549;28;66645;-47
2023/07/17 11:25:10;;;;;;;12.80;7.78;;;;;;;30.50;76.85;100325.75;5058042;28;69382;-46
2023/07/17 11:27:42;;;;;;;8.65;6.00;;;;;;;30.70;75.99;100328.97;5049427;28;66566;-45
2023/07/17 11:30:17;;;;;;;10.02;6.80;;;;;;;30.73;74.80;100333.94;5053482;28;70252;-45
2023/07/17 11:32:58;;;;;;;10.25;5.82;;;;;;;30.73;74.90;100333.94;5049449;28;66380;-47
2023/07/17 11:35:44;;;;;;;10.43;6.25;;;;;;;30.13;74.41;100241.13;5057061;28;69668;-47
2023/07/17 11:38:18;;;;;;;14.15;6.28;;;;;;;30.78;74.15;100344.03;5058291;28;66543;-45
2023/07/17 11:41:01;;;;;;;8.10;6.38;;;;;;;30.83;73.85;100348.81;5056494;28;69152;-47
2023/07/17 11:43:37;;;;;;;14.25;6.55;;;;;;;30.71;73.67;100318.97;5057637;28;66292;-46
2023/07/17 11:46:09;;;;;;;7.30;5.05;;;;;;;30.90;73.36;100354.94;5060152;28;70603;-45
2023/07/17 11:48:46;;;;;;;6.45;5.07;;;;;;;30.89;73.70;100342.44;5058260;28;65541;-46
2023/07/17 11:51:17;;;;;;;9.25;5.55;;;;;;;30.88;73.43;100352.47;5056590;28;69494;-45